EW3861 Weather Reports


Display with metric or nautical units.
time (UTC)temp
F
wind
direction
speed
MPH
gust
MPH
rain 1hr
in
rain 24hr
in
rain mn
in
humidity
%
barometer
mb
20210805133007 63 249 0.0 2.0 0.11 1.67 1.17 98 1017.3
20210805131502 63 113 1.0 6.0 0.14 1.66 1.15 98 1017.2
20210805130001 63 146 0.0 2.0 0.14 1.63 1.12 98 1017.4
20210805124655 63 121 0.0 2.0 0.14 1.60 1.10 98 1017.1
20210805123329 63 121 0.0 1.0 0.13 1.56 1.06 97 1017.2
20210805121644 63 134 0.0 1.0 0.15 1.52 1.02 97 1017.4
20210805120257 63 134 0.0 1.0 0.16 1.49 0.99 97 1017.6
20210805114733 63 58 0.0 2.0 0.24 1.46 0.96 97 1017.3
20210805113142 63 55 0.0 0.0 0.24 1.43 0.93 97 1017.4
20210805111626 63 42 0.0 1.0 0.26 1.37 0.87 97 1017.5
20210805110229 63 13 0.0 0.0 0.24 1.33 0.83 97 1017.6
20210805104708 63 5 0.0 0.0 0.15 1.22 0.72 97 1017.6
20210805103116 63 5 0.0 2.0 0.14 1.19 0.69 97 1017.4
20210805101634 63 5 0.0 2.0 0.06 1.11 0.61 97 1017.5
20210805100151 63 102 0.0 1.0 0.05 1.09 0.59 97 1017.1
20210805094701 63 109 0.0 1.0 0.03 1.07 0.56 97 1017.1
20210805093333 63 113 0.0 2.0 0.01 1.05 0.55 97 1016.8
20210805091624 62 94 0.0 1.0 0.01 1.05 0.55 97 1016.8
20210805090225 62 94 0.0 1.0 0.01 1.04 0.54 97 1017.1
20210805084630 62 94 0.0 2.0 0.02 1.04 0.54 97 1016.9
20210805083137 62 91 0.0 2.0 0.10 1.04 0.54 97 1017.2
20210805081634 63 91 0.0 1.0 0.11 1.04 0.54 97 1016.9
20210805080141 63 91 0.0 2.0 0.10 1.03 0.53 97 1017.2
20210805074627 63 155 0.0 3.0 0.09 1.02 0.52 97 1017.3
20210805073123 63 107 0.0 1.0 0.01 0.94 0.44 97 1017.4
20210805071605 63 138 0.0 2.0 0.01 0.93 0.43 97 1017.4
20210805070102 63 127 0.0 2.0 0.01 0.93 0.43 97 1017.5
20210805064543 63 128 0.0 3.0 0.04 0.93 0.43 97 1017.3
20210805063121 63 134 0.0 3.0 0.05 0.93 0.43 97 1017.6
20210805061629 63 223 0.0 1.0 0.05 0.92 0.42 97 1017.7
20210805060118 63 223 0.0 1.0 0.08 0.92 0.42 97 1017.9
20210805054637 63 224 0.0 0.0 0.08 0.89 0.39 97 1018.1
20210805053115 63 224 0.0 1.0 0.16 0.88 0.38 97 1018.3
20210805051635 62 224 0.0 1.0 0.24 0.87 0.37 97 1018.5
20210805050117 62 224 0.0 3.0 0.33 0.84 0.34 97 1018.6
20210805044545 62 224 0.0 0.0 0.40 0.81 0.31 97 1018.8
20210805043056 62 224 0.0 1.0 0.33 0.71 0.21 97 1019.0
20210805041531 62 224 0.0 1.0 0.28 0.62 0.12 96 1018.9
20210805040030 62 224 0.0 0.0 0.22 0.50 0.00 96 1019.0
20210805034612 62 224 0.0 1.0 0.18 0.40 0.40 96 1019.1
20210805033023 62 224 0.0 1.0 0.22 0.38 0.38 96 1019.2
20210805031602 62 224 0.0 1.0 0.23 0.33 0.33 96 1019.3
20210805030033 62 224 0.0 1.0 0.18 0.27 0.27 96 1019.6
20210805024529 62 224 0.0 1.0 0.13 0.22 0.22 95 1019.7
20210805023026 62 224 0.0 1.0 0.07 0.16 0.16 95 1020.1
20210805021533 62 224 0.0 0.0 0.01 0.10 0.10 95 1020.1
20210805020119 62 224 0.0 0.0 0.00 0.09 0.09 95 1020.1
20210805014518 62 224 0.0 0.0 0.00 0.09 0.09 95 1020.2
20210805013042 63 224 0.0 2.0 0.00 0.09 0.09 94 1020.2
20210805011520 63 224 0.0 1.0 0.00 0.09 0.09 94 1020.0
20210805010042 63 224 0.0 0.0 0.00 0.09 0.09 94 1020.2
20210805004514 64 224 0.0 0.0 0.00 0.09 0.09 94 1020.2
20210805003015 64 224 0.0 0.0 0.01 0.09 0.09 94 1020.2
20210805001516 64 224 0.0 1.0 0.02 0.09 0.09 94 1020.0
20210805000020 65 224 0.0 0.0 0.05 0.09 0.09 93 1019.5
20210804234511 65 224 0.0 0.0 0.08 0.09 0.09 93 1019.7
20210804233014 65 224 0.0 1.0 0.08 0.08 0.08 92 1019.6
20210804231512 65 224 0.0 1.0 0.07 0.07 0.07 92 1019.3
20210804224514 67 224 0.0 0.0 0.01 0.01 0.01 90 1020.8
20210804223011 67 224 0.0 4.0 0.00 0.00 0.00 88 1020.8
20210804221527 68 224 0.0 6.0 0.00 0.00 0.00 87 1020.9
20210804220008 68 224 0.0 2.0 0.00 0.00 0.00 87 1020.7
20210804214504 68 224 0.0 1.0 0.00 0.00 0.00 87 1020.2
20210804213003 69 224 0.0 5.0 0.00 0.00 0.00 86 1020.3
20210804211503 69 224 0.0 5.0 0.00 0.00 0.00 85 1020.3
20210804210006 69 224 1.0 5.0 0.00 0.00 0.00 83 1020.3
20210804204515 70 226 1.0 5.0 0.00 0.00 0.00 82 1020.0
20210804203001 71 226 0.0 2.0 0.00 0.00 0.00 83 1020.0
20210804201505 71 227 0.0 4.0 0.00 0.00 0.00 83 1020.2
20210804200217 71 227 0.0 5.0 0.00 0.00 0.00 82 1020.2
20210804194824 71 231 0.0 4.0 0.00 0.00 0.00 81 1020.4
20210804193217 72 231 1.0 5.0 0.00 0.00 0.00 80 1020.7
20210804191709 72 234 0.0 1.0 0.00 0.00 0.00 81 1020.6
20210804190214 72 236 0.0 3.0 0.00 0.00 0.00 80 1020.5
20210804184723 73 233 0.0 4.0 0.00 0.00 0.00 78 1020.4
20210804183147 73 233 0.0 3.0 0.00 0.00 0.00 77 1020.3
20210804181624 73 257 0.0 4.0 0.00 0.00 0.00 78 1020.2
20210804180208 74 279 0.0 3.0 0.00 0.00 0.00 75 1020.2
20210804174721 73 280 0.0 0.0 0.00 0.00 0.00 75 1020.2
20210804173211 73 280 0.0 3.0 0.00 0.00 0.00 73 1020.3
20210804171715 73 220 0.0 1.0 0.00 0.00 0.00 72 1020.3
20210804170110 73 220 0.0 2.0 0.00 0.00 0.00 72 1020.3
20210804164911 74 220 0.0 1.0 0.00 0.00 0.00 75 1020.4
20210804163052 73 220 0.0 0.0 0.00 0.00 0.00 75 1020.3
20210804161726 73 220 0.0 1.0 0.00 0.00 0.00 74 1020.2
20210804160117 73 220 0.0 3.0 0.00 0.00 0.00 73 1020.3
20210804154601 73 220 0.0 0.0 0.00 0.00 0.00 74 1020.4
20210804153056 72 220 0.0 3.0 0.00 0.00 0.00 75 1020.4
20210804151552 71 220 0.0 3.0 0.00 0.00 0.00 77 1020.3
20210804150115 71 220 0.0 1.0 0.00 0.00 0.00 80 1020.1
20210804144616 70 220 0.0 1.0 0.00 0.00 0.00 82 1020.1
20210804143041 69 220 0.0 2.0 0.00 0.00 0.00 83 1019.9
20210804141558 68 220 0.0 1.0 0.00 0.00 0.00 89 1019.8
20210804140036 67 220 0.0 0.0 0.00 0.00 0.00 91 1019.7
20210804134526 66 220 0.0 0.0 0.00 0.00 0.00 95 1019.8